DLA1TA EDDM-LIRQ
Flight info
| Callsign | DLA1TA |
|---|---|
| Flight time | N/A |
| Altitude | 41000 |
| Route | TURBU6E/08R TURBU Y107 TOBSO DCT BAKOR DCT VIC DCT KOPER DCT LUMAV/N0316F230 Q58 BIKTU |
| Aircraft | E190/M-SDE2E3FGIRWY/LB1 |
Departure
| Time | 2026-05-04 15:39 |
|---|---|
| Airport | Munich Airport (EDDM) |
Arrival
| Time | N/A |
|---|---|
| Airport | Florence Airport, Peretola (LIRQ) |
| Time | Latitude | Longitude | Altitude | Speed | Heading |
|---|---|---|---|---|---|
| 2026-05-04 14:51 | 48.35233 | 11.80414 | 1476 ft | 0 kts | 353° |
| 2026-05-04 15:20 | 48.35229 | 11.80415 | 1484 ft | 3 kts | 353° |
| 2026-05-04 15:20 | 48.35207 | 11.80418 | 1470 ft | 3 kts | 353° |
| 2026-05-04 15:20 | 48.35189 | 11.80428 | 1473 ft | 4 kts | 277° |
| 2026-05-04 15:20 | 48.35190 | 11.80466 | 1473 ft | 4 kts | 263° |
| 2026-05-04 15:21 | 48.35191 | 11.80476 | 1474 ft | 3 kts | 263° |
| 2026-05-04 15:28 | 48.35187 | 11.80426 | 1484 ft | 6 kts | 263° |
| 2026-05-04 15:29 | 48.35181 | 11.80354 | 1484 ft | 8 kts | 263° |
| 2026-05-04 15:30 | 48.35145 | 11.79876 | 1484 ft | 9 kts | 263° |
| 2026-05-04 15:30 | 48.35111 | 11.79544 | 1478 ft | 8 kts | 235° |
| 2026-05-04 15:31 | 48.34969 | 11.79538 | 1474 ft | 13 kts | 173° |
| 2026-05-04 15:31 | 48.34870 | 11.79555 | 1476 ft | 15 kts | 173° |
| 2026-05-04 15:32 | 48.34773 | 11.79318 | 1476 ft | 14 kts | 263° |
| 2026-05-04 15:32 | 48.34747 | 11.78974 | 1484 ft | 19 kts | 264° |
| 2026-05-04 15:33 | 48.34718 | 11.78613 | 1476 ft | 17 kts | 263° |
| 2026-05-04 15:34 | 48.34674 | 11.78031 | 1484 ft | 17 kts | 263° |
| 2026-05-04 15:34 | 48.34660 | 11.77845 | 1484 ft | 19 kts | 264° |
| 2026-05-04 15:34 | 48.34627 | 11.77429 | 1484 ft | 21 kts | 264° |
| 2026-05-04 15:35 | 48.34598 | 11.77042 | 1484 ft | 18 kts | 264° |
| 2026-05-04 15:35 | 48.34584 | 11.76848 | 1481 ft | 19 kts | 263° |
| 2026-05-04 15:35 | 48.34567 | 11.76639 | 1484 ft | 21 kts | 263° |
| 2026-05-04 15:36 | 48.34539 | 11.76276 | 1484 ft | 18 kts | 264° |
| 2026-05-04 15:36 | 48.34524 | 11.76081 | 1484 ft | 20 kts | 263° |
| 2026-05-04 15:36 | 48.34508 | 11.75871 | 1477 ft | 21 kts | 263° |
| 2026-05-04 15:37 | 48.34490 | 11.75648 | 1480 ft | 21 kts | 263° |
| 2026-05-04 15:37 | 48.34474 | 11.75428 | 1484 ft | 22 kts | 263° |
| 2026-05-04 15:37 | 48.34458 | 11.75253 | 1481 ft | 10 kts | 251° |
| 2026-05-04 15:37 | 48.34393 | 11.75219 | 1484 ft | 12 kts | 174° |
| 2026-05-04 15:38 | 48.34303 | 11.75236 | 1475 ft | 15 kts | 173° |
| 2026-05-04 15:38 | 48.34186 | 11.75257 | 1480 ft | 19 kts | 173° |
| 2026-05-04 15:38 | 48.34088 | 11.75352 | 1480 ft | 19 kts | 90° |
| 2026-05-04 15:38 | 48.34118 | 11.75761 | 1484 ft | 76 kts | 83° |
| 2026-05-04 15:39 | 48.34210 | 11.76958 | 1475 ft | 152 kts | 83° |
| 2026-05-04 15:39 | 48.34358 | 11.78830 | 1795 ft | 201 kts | 81° |
| 2026-05-04 15:39 | 48.34601 | 11.83491 | 3245 ft | 228 kts | 79° |
| 2026-05-04 15:40 | 48.34931 | 11.85690 | 3821 ft | 213 kts | 76° |
| 2026-05-04 15:40 | 48.35273 | 11.87906 | 4526 ft | 224 kts | 78° |
| 2026-05-04 15:40 | 48.35544 | 11.90311 | 5118 ft | 239 kts | 86° |
| 2026-05-04 15:40 | 48.35586 | 11.92812 | 6130 ft | 241 kts | 91° |
| 2026-05-04 15:41 | 48.35534 | 11.95295 | 7020 ft | 235 kts | 94° |
| 2026-05-04 15:41 | 48.35422 | 11.97827 | 7623 ft | 251 kts | 97° |
| 2026-05-04 15:41 | 48.35247 | 12.00530 | 8181 ft | 268 kts | 98° |
| 2026-05-04 15:41 | 48.35116 | 12.02402 | 8610 ft | 275 kts | 98° |